createdAt,value
2023-02-19T18:25:29.585Z,95.46
2023-02-19T18:27:44.581Z,94.61
2023-02-19T18:29:53.933Z,93.95
2023-02-19T18:32:05.487Z,93.42
2023-02-19T18:34:22.425Z,93.54
2023-02-19T18:36:30.741Z,93.37
2023-02-19T18:38:37.790Z,93.50
2023-02-19T18:40:43.621Z,93.46
2023-02-19T18:42:51.455Z,93.35
2023-02-19T18:44:58.120Z,93.63
2023-02-19T18:47:07.894Z,94.08
2023-02-19T18:49:15.282Z,94.10
2023-02-19T18:51:30.686Z,93.85
2023-02-19T18:53:39.010Z,93.72
2023-02-19T18:55:48.178Z,93.68
2023-02-19T18:57:55.664Z,93.17
2023-02-19T19:00:02.705Z,93.20
2023-02-19T19:02:10.901Z,92.87
2023-02-19T19:04:19.378Z,92.49
2023-02-19T19:06:32.845Z,92.56
2023-02-19T19:08:39.969Z,92.45
2023-02-19T19:10:46.035Z,92.32
2023-02-19T19:12:53.636Z,92.40
2023-02-19T19:15:00.538Z,92.68
2023-02-19T19:17:06.948Z,93.02
2023-02-19T19:19:13.646Z,93.48
2023-02-19T19:21:21.352Z,94.03
2023-02-19T19:23:34.790Z,93.93
2023-02-19T19:25:44.816Z,93.98
2023-02-19T19:27:55.584Z,93.53
2023-02-19T19:30:04.272Z,93.72
2023-02-19T19:32:12.840Z,93.65
2023-02-19T19:34:26.371Z,93.45
2023-02-19T19:36:36.290Z,93.39
2023-02-19T19:38:43.966Z,93.36
2023-02-19T19:40:53.380Z,93.48
2023-02-19T19:43:00.410Z,93.41
2023-02-19T19:45:09.372Z,93.24
2023-02-19T19:47:16.174Z,93.27
2023-02-19T19:49:25.581Z,93.27
2023-02-19T19:51:36.398Z,92.71
2023-02-19T19:53:43.615Z,92.24
2023-02-19T19:55:50.622Z,92.22
2023-02-19T19:57:57.318Z,92.23
2023-02-19T20:00:05.319Z,91.93
2023-02-19T20:02:21.493Z,91.97
2023-02-19T20:04:28.817Z,92.11
2023-02-19T20:06:39.189Z,92.16
2023-02-19T20:08:46.113Z,91.92
2023-02-19T20:10:52.603Z,91.95
2023-02-19T20:12:59.168Z,91.56
2023-02-19T20:15:05.991Z,91.36
2023-02-19T20:17:16.399Z,91.24
2023-02-19T20:19:23.511Z,91.26
2023-02-19T20:21:34.813Z,91.30
2023-02-19T20:23:46.965Z,91.33
2023-02-19T20:25:57.483Z,91.23
2023-02-19T20:28:08.444Z,91.48
2023-02-19T20:30:24.107Z,91.79
2023-02-19T20:32:31.705Z,92.22
2023-02-19T20:34:42.254Z,92.38
2023-02-19T20:36:56.772Z,92.66
2023-02-19T20:39:03.131Z,93.11
2023-02-19T20:41:14.683Z,93.77
2023-02-19T20:43:24.499Z,93.71
2023-02-19T20:45:34.030Z,93.71
2023-02-19T20:47:48.342Z,93.11
2023-02-19T20:49:57.952Z,92.92
2023-02-19T20:52:06.236Z,93.31
2023-02-19T20:54:12.730Z,94.32
2023-02-19T20:56:19.862Z,95.06
2023-02-19T20:58:26.401Z,95.93
2023-02-19T21:00:32.941Z,96.25
2023-02-19T21:02:39.066Z,96.49
2023-02-19T21:04:47.167Z,96.55
2023-02-19T21:06:53.959Z,96.71
2023-02-19T21:09:01.123Z,97.25
2023-02-19T21:11:09.180Z,97.11
2023-02-19T21:13:15.560Z,97.01
2023-02-19T21:15:23.991Z,96.95
2023-02-19T21:17:30.933Z,97.93
2023-02-19T21:19:36.818Z,98.17
2023-02-19T21:21:42.394Z,98.23
2023-02-19T21:23:49.284Z,98.72
2023-02-19T21:25:54.782Z,98.08
2023-02-19T21:28:01.234Z,98.48
2023-02-19T21:30:10.880Z,98.50
2023-02-19T21:32:18.249Z,98.76
2023-02-19T21:34:26.364Z,98.78
2023-02-19T21:36:31.143Z,98.37
2023-02-19T21:38:36.404Z,97.92
2023-02-19T21:40:43.576Z,97.47
2023-02-19T21:42:49.310Z,96.46
2023-02-19T21:44:55.636Z,96.58
2023-02-19T21:47:00.899Z,96.49
2023-02-19T21:49:06.520Z,96.22
2023-02-19T21:51:11.416Z,96.69
2023-02-19T21:53:16.766Z,96.26
2023-02-19T21:55:21.946Z,95.40
2023-02-19T21:57:28.312Z,94.63
2023-02-19T21:59:33.165Z,94.25
2023-02-19T22:01:39.542Z,93.10
2023-02-19T22:03:44.678Z,92.88
2023-02-19T22:05:49.383Z,92.33
2023-02-19T22:07:54.188Z,92.08
2023-02-19T22:09:58.985Z,91.73
2023-02-19T22:12:07.095Z,91.78
2023-02-19T22:14:11.786Z,92.18
2023-02-19T22:16:16.799Z,92.28
2023-02-19T22:18:21.509Z,91.88
2023-02-19T22:20:26.184Z,91.69
2023-02-19T22:22:30.820Z,91.59
2023-02-19T22:24:35.510Z,90.97
2023-02-19T22:26:40.138Z,91.26
2023-02-19T22:28:44.826Z,91.21
2023-02-19T22:30:49.605Z,91.03
2023-02-19T22:32:54.540Z,91.30
2023-02-19T22:34:59.266Z,90.63
2023-02-19T22:37:09.855Z,90.97
2023-02-19T22:39:20.335Z,91.57
2023-02-19T22:41:25.497Z,91.40
2023-02-19T22:43:30.185Z,91.54
2023-02-19T22:45:37.677Z,91.75
2023-02-19T22:47:42.308Z,92.07
2023-02-19T22:49:47.019Z,92.22
2023-02-19T22:51:57.696Z,92.50
2023-02-19T22:54:02.422Z,92.75
2023-02-19T22:56:07.656Z,93.07
2023-02-19T22:58:12.331Z,93.68
2023-02-19T23:00:19.613Z,93.89
2023-02-19T23:02:24.311Z,94.42
2023-02-19T23:04:29.044Z,94.39
2023-02-19T23:06:35.521Z,94.27
2023-02-19T23:08:43.497Z,94.39
2023-02-19T23:10:48.275Z,94.41
2023-02-19T23:12:52.892Z,94.18
2023-02-19T23:14:57.566Z,94.98
2023-02-19T23:17:02.241Z,95.27
2023-02-19T23:19:07.905Z,95.66
2023-02-19T23:21:13.642Z,95.67
2023-02-19T23:23:18.366Z,95.50
2023-02-19T23:25:23.394Z,96.21
2023-02-19T23:27:28.234Z,95.90
2023-02-19T23:29:32.963Z,96.61
2023-02-19T23:31:37.877Z,96.95
2023-02-19T23:33:43.009Z,97.25
2023-02-19T23:35:47.650Z,97.73
2023-02-19T23:37:52.467Z,97.42
2023-02-19T23:39:57.120Z,97.04
2023-02-19T23:42:01.810Z,96.60
2023-02-19T23:44:07.166Z,95.28
2023-02-19T23:46:15.886Z,95.26
2023-02-19T23:48:20.674Z,94.63
2023-02-19T23:50:25.446Z,94.63
2023-02-19T23:52:30.024Z,94.31
2023-02-19T23:54:34.903Z,94.48
2023-02-19T23:56:39.547Z,94.04
2023-02-19T23:58:44.192Z,94.26
